Time;durP1;ratioP1;P1;durP2;ratioP2;P2;SDS_P1;SDS_P2;PMS_P1;PMS_P2;Temp;Humidity;BMP_temperature;BMP_pressure;BME280_temperature;BME280_humidity;BME280_pressure;Samples;Min_cycle;Max_cycle;Signal;HPM_P1;HPM_P2
2023/11/28 00:01:07;;;;;;;2.22;0.50;;;;;;;-4.66;70.05;100664.47;4993052;28;20052;-71
2023/11/28 00:03:34;;;;;;;1.70;0.40;;;;;;;-4.64;70.02;100667.06;4993113;28;20129;-71
2023/11/28 00:06:00;;;;;;;0.40;0.20;;;;;;;-4.62;69.87;100668.00;4993763;28;20074;-71
2023/11/28 00:08:28;;;;;;;1.52;0.50;;;;;;;-4.62;69.88;100655.28;4992926;28;20086;-70
2023/11/28 00:10:55;;;;;;;1.45;0.52;;;;;;;-4.61;70.01;100657.00;4993638;28;20096;-71
2023/11/28 00:13:27;;;;;;;2.28;0.52;;;;;;;-4.60;69.84;100654.53;4993555;28;20104;-70
2023/11/28 00:15:54;;;;;;;0.95;0.30;;;;;;;-4.57;69.98;100656.34;4993808;28;20413;-71
2023/11/28 00:18:21;;;;;;;1.48;0.38;;;;;;;-4.58;69.82;100649.50;4993013;28;20560;-71
2023/11/28 00:20:48;;;;;;;1.98;0.50;;;;;;;-4.56;70.11;100651.28;4992748;28;20046;-70
2023/11/28 00:23:15;;;;;;;0.82;0.30;;;;;;;-4.56;70.02;100638.53;4993764;28;20168;-71
2023/11/28 00:25:42;;;;;;;3.72;0.30;;;;;;;-4.53;69.93;100632.69;4993783;28;20125;-70
2023/11/28 00:28:09;;;;;;;2.58;0.40;;;;;;;-4.53;69.97;100630.13;4992862;28;20133;-77
2023/11/28 00:30:38;;;;;;;0.50;0.30;;;;;;;-4.53;69.98;100625.91;4993880;28;20130;-76
2023/11/28 00:33:04;;;;;;;0.80;0.50;;;;;;;-4.51;69.81;100623.44;4994127;28;20113;-76
2023/11/28 00:35:31;;;;;;;1.58;0.40;;;;;;;-4.49;70.23;100629.47;4950263;28;1281270;-76
2023/11/28 00:37:58;;;;;;;0.52;0.45;;;;;;;-4.46;70.05;100624.50;4997819;28;20288;-81
2023/11/28 00:40:28;;;;;;;1.75;0.50;;;;;;;-4.46;70.08;100618.53;4999791;28;20074;-81
2023/11/28 00:42:56;;;;;;;1.40;0.50;;;;;;;-4.44;69.90;100620.34;4999657;28;20401;-81
2023/11/28 00:45:25;;;;;;;1.58;0.50;;;;;;;-4.44;70.22;100610.13;4998599;28;20104;-82
2023/11/28 00:47:54;;;;;;;2.47;0.30;;;;;;;-4.40;70.27;100604.34;4999511;28;20358;-81
2023/11/28 00:50:21;;;;;;;1.02;0.50;;;;;;;-4.39;70.06;100608.59;4998679;28;20062;-81
2023/11/28 00:52:49;;;;;;;2.65;0.50;;;;;;;-4.38;70.06;100605.28;4998321;28;20489;-81
2023/11/28 00:55:17;;;;;;;0.75;0.43;;;;;;;-4.37;70.23;100599.34;4999017;28;20441;-81
2023/11/28 00:57:45;;;;;;;0.40;0.22;;;;;;;-4.36;69.94;100598.53;4999781;28;20046;-81
2023/11/28 01:00:13;;;;;;;1.40;0.47;;;;;;;-4.36;70.35;100588.31;4998452;28;20046;-82
2023/11/28 01:02:41;;;;;;;0.52;0.40;;;;;;;-4.36;70.16;100582.38;4998875;28;20050;-81
2023/11/28 01:05:10;;;;;;;1.65;0.60;;;;;;;-4.35;70.23;100579.03;4998309;28;20054;-81
2023/11/28 01:07:37;;;;;;;0.55;0.40;;;;;;;-4.33;70.46;100575.69;4998173;28;20078;-82
2023/11/28 01:10:05;;;;;;;1.52;0.38;;;;;;;-4.33;70.25;100567.19;4999230;28;20078;-81
2023/11/28 01:12:32;;;;;;;2.30;0.38;;;;;;;-4.31;70.44;100568.97;4998997;28;20106;-81
2023/11/28 01:14:59;;;;;;;1.80;0.50;;;;;;;-4.34;70.45;100556.13;4998210;28;20050;-81
2023/11/28 01:17:26;;;;;;;2.20;0.40;;;;;;;-4.29;70.32;100548.66;4999150;28;20124;-81
2023/11/28 01:19:53;;;;;;;1.42;0.82;;;;;;;-4.32;70.27;100543.44;4998036;28;20129;-82
2023/11/28 01:22:21;;;;;;;0.70;0.40;;;;;;;-4.27;70.59;100541.03;4998614;28;20101;-81
2023/11/28 01:24:49;;;;;;;1.55;0.40;;;;;;;-4.32;70.50;100526.44;4998145;28;20058;-81
2023/11/28 01:27:16;;;;;;;0.88;0.40;;;;;;;-4.24;70.30;100525.84;4997790;28;20054;-81
2023/11/28 01:29:43;;;;;;;1.77;0.40;;;;;;;-4.25;70.43;100519.03;4998399;28;20105;-80
2023/11/28 01:32:10;;;;;;;1.05;0.40;;;;;;;-4.23;70.48;100522.50;4998175;28;20087;-81
2023/11/28 01:34:36;;;;;;;0.93;0.30;;;;;;;-4.23;70.51;100509.75;4997208;28;20093;-81
2023/11/28 01:37:04;;;;;;;9.68;0.50;;;;;;;-4.22;70.62;100514.03;4997688;28;20047;-81
2023/11/28 01:39:32;;;;;;;1.48;0.30;;;;;;;-4.22;70.52;100497.03;4996504;28;20084;-70
2023/11/28 01:41:59;;;;;;;0.75;0.30;;;;;;;-4.20;70.32;100489.47;4997116;28;20134;-71
2023/11/28 01:44:26;;;;;;;2.70;0.40;;;;;;;-4.19;70.30;100493.75;4996359;28;20471;-71
2023/11/28 01:46:55;;;;;;;0.60;0.40;;;;;;;-4.20;70.50;100486.91;4996311;28;20057;-70
2023/11/28 01:49:22;;;;;;;1.13;0.40;;;;;;;-4.18;70.86;100485.31;4996048;28;20133;-70
2023/11/28 01:51:49;;;;;;;1.23;0.40;;;;;;;-4.17;70.65;100482.78;4997007;28;20129;-71
2023/11/28 01:54:17;;;;;;;0.65;0.32;;;;;;;-4.16;70.66;100461.56;4996446;28;20526;-71
2023/11/28 01:56:45;;;;;;;1.25;0.30;;;;;;;-4.14;70.79;100456.53;4996543;28;20042;-71
2023/11/28 01:59:14;;;;;;;1.15;0.40;;;;;;;-4.12;70.79;100455.78;4995724;28;20133;-71
2023/11/28 02:01:43;;;;;;;1.60;0.35;;;;;;;-4.12;70.92;100445.56;4995607;28;20054;-71
2023/11/28 02:04:10;;;;;;;1.98;0.43;;;;;;;-4.08;70.74;100441.44;4995574;28;20133;-70
2023/11/28 02:06:37;;;;;;;0.65;0.30;;;;;;;-4.08;71.11;100437.19;4995998;28;20077;-70
2023/11/28 02:09:04;;;;;;;0.40;0.30;;;;;;;-4.06;70.91;100434.72;4995540;28;20046;-70
2023/11/28 02:11:31;;;;;;;1.25;0.25;;;;;;;-4.03;70.98;100442.47;4996119;28;20389;-70
2023/11/28 02:13:59;;;;;;;1.98;0.30;;;;;;;-4.02;71.27;100436.53;4996243;28;20077;-70
2023/11/28 02:16:26;;;;;;;1.13;0.20;;;;;;;-4.00;71.28;100445.13;4995397;28;20046;-70
2023/11/28 02:18:53;;;;;;;1.92;0.57;;;;;;;-3.98;71.32;100429.88;4996756;28;20073;-70
2023/11/28 02:21:20;;;;;;;0.90;0.30;;;;;;;-3.96;71.43;100416.34;4995590;28;20464;-71
2023/11/28 02:23:47;;;;;;;0.60;0.35;;;;;;;-3.94;71.32;100418.94;4996292;28;20130;-71
2023/11/28 02:26:23;;;;;;;2.40;0.40;;;;;;;-3.93;71.37;100411.38;4995158;28;20559;-70
2023/11/28 02:28:50;;;;;;;1.10;0.40;;;;;;;-3.90;71.35;100413.13;4995334;28;20050;-71
2023/11/28 02:31:17;;;;;;;0.30;0.20;;;;;;;-3.88;71.20;100409.81;4995938;28;20046;-70
2023/11/28 02:33:44;;;;;;;1.35;0.60;;;;;;;-3.86;71.33;100405.63;4995025;28;20117;-71
2023/11/28 02:36:11;;;;;;;2.70;0.40;;;;;;;-3.83;71.50;100401.47;4995098;28;20078;-71
2023/11/28 02:38:38;;;;;;;0.80;0.35;;;;;;;-3.81;71.42;100384.50;4994969;28;20078;-70
2023/11/28 02:41:06;;;;;;;1.50;0.70;;;;;;;-3.79;71.50;100377.75;4995361;28;20070;-71
2023/11/28 02:43:34;;;;;;;1.70;0.75;;;;;;;-3.76;71.58;100382.97;4994792;28;20129;-71
2023/11/28 02:46:01;;;;;;;1.35;0.60;;;;;;;-3.74;71.73;100378.78;4995791;28;20125;-71
2023/11/28 02:48:28;;;;;;;3.40;0.75;;;;;;;-3.72;71.86;100374.59;4994800;28;20051;-71
2023/11/28 02:50:55;;;;;;;2.10;0.63;;;;;;;-3.71;71.58;100364.44;4995759;28;20077;-71
2023/11/28 02:53:22;;;;;;;1.00;0.60;;;;;;;-3.69;71.45;100367.06;4994718;28;20097;-71
2023/11/28 02:55:49;;;;;;;1.67;0.52;;;;;;;-3.67;71.81;100365.38;4994912;28;20054;-71
2023/11/28 02:58:16;;;;;;;1.42;0.90;;;;;;;-3.65;71.44;100361.22;4994298;28;20085;-71
2023/11/28 03:00:44;;;;;;;3.17;1.20;;;;;;;-3.64;71.33;100351.06;4995713;28;20444;-70
2023/11/28 03:03:11;;;;;;;1.50;0.50;;;;;;;-3.61;71.58;100352.84;4994460;28;20537;-71
2023/11/28 03:05:38;;;;;;;1.92;0.68;;;;;;;-3.58;71.77;100352.94;4994761;28;20046;-71
2023/11/28 03:08:06;;;;;;;3.65;0.85;;;;;;;-3.58;71.90;100342.75;4994742;28;20078;-71
2023/11/28 03:10:33;;;;;;;1.90;0.60;;;;;;;-3.53;71.66;100345.41;4994703;28;20046;-71
2023/11/28 03:12:59;;;;;;;5.32;0.85;;;;;;;-3.51;71.58;100331.88;4995240;28;20109;-71
2023/11/28 03:15:26;;;;;;;2.75;0.63;;;;;;;-3.50;71.94;100333.63;4995196;28;20641;-71
2023/11/28 03:17:55;;;;;;;1.45;0.50;;;;;;;-3.46;71.75;100332.03;4994559;28;20042;-71
2023/11/28 03:20:22;;;;;;;3.60;0.73;;;;;;;-3.45;72.08;100323.53;4995049;28;20070;-71
2023/11/28 03:22:49;;;;;;;2.38;0.70;;;;;;;-3.41;71.96;100325.38;4994117;28;20129;-71
2023/11/28 03:25:15;;;;;;;3.30;0.85;;;;;;;-3.39;72.04;100318.63;4994217;28;20081;-71
2023/11/28 03:27:42;;;;;;;3.47;0.55;;;;;;;-3.36;71.90;100312.75;4994163;28;20046;-71
2023/11/28 03:30:10;;;;;;;1.35;0.80;;;;;;;-3.35;71.89;100309.38;4994356;28;20134;-71
2023/11/28 03:32:37;;;;;;;1.23;0.60;;;;;;;-3.34;71.79;100308.56;4994503;28;20077;-71
2023/11/28 03:35:07;;;;;;;2.92;0.50;;;;;;;-3.31;71.72;100300.97;4994622;28;20133;-71
2023/11/28 03:37:34;;;;;;;0.80;0.50;;;;;;;-3.30;71.52;100288.28;4993953;28;20046;-70
2023/11/28 03:40:00;;;;;;;1.00;0.50;;;;;;;-3.28;71.75;100280.63;4994059;28;20089;-71
2023/11/28 03:42:27;;;;;;;2.78;0.80;;;;;;;-3.27;72.13;100274.72;4994021;28;20668;-71
2023/11/28 03:44:54;;;;;;;1.25;0.40;;;;;;;-3.28;72.13;100257.66;4995491;28;20078;-71
2023/11/28 03:47:21;;;;;;;2.22;0.88;;;;;;;-3.26;71.92;100268.78;4993843;28;20133;-71
2023/11/28 03:49:48;;;;;;;0.90;0.57;;;;;;;-3.25;71.81;100257.75;4993871;28;20129;-71
2023/11/28 03:52:17;;;;;;;2.13;0.57;;;;;;;-3.26;71.94;100248.34;4994971;28;20126;-71
2023/11/28 03:54:44;;;;;;;2.58;0.70;;;;;;;-3.23;71.71;100244.19;4993897;28;20054;-71
2023/11/28 03:57:11;;;;;;;4.57;0.93;;;;;;;-3.22;71.62;100235.69;4994120;28;20113;-71
2023/11/28 03:59:38;;;;;;;1.98;0.40;;;;;;;-3.21;71.63;100231.47;4994640;28;20046;-71
2023/11/28 04:02:05;;;;;;;2.45;0.65;;;;;;;-3.20;71.56;100228.09;4993721;28;20129;-71
2023/11/28 04:04:33;;;;;;;3.42;0.80;;;;;;;-3.20;71.53;100220.44;4994504;28;20120;-71
2023/11/28 04:07:00;;;;;;;2.08;0.55;;;;;;;-3.19;71.45;100217.94;4993949;28;20050;-71
2023/11/28 04:09:28;;;;;;;2.58;1.05;;;;;;;-3.18;71.94;100213.69;4993779;28;20129;-71
2023/11/28 04:11:55;;;;;;;7.03;1.20;;;;;;;-3.16;71.86;100217.13;4997552;28;20465;-71
2023/11/28 04:14:22;;;;;;;2.53;0.82;;;;;;;-3.16;71.33;100206.91;4997860;28;20487;-71
2023/11/28 04:16:49;;;;;;;1.45;0.68;;;;;;;-3.15;71.55;100198.44;4997674;28;20464;-71
2023/11/28 04:19:16;;;;;;;2.38;0.80;;;;;;;-3.14;71.76;100191.63;4997698;28;20574;-72
2023/11/28 04:21:43;;;;;;;1.13;0.60;;;;;;;-3.12;71.52;100190.00;4998580;28;20122;-72
2023/11/28 04:24:10;;;;;;;1.90;0.63;;;;;;;-3.13;71.95;100184.03;4997739;28;20050;-72
2023/11/28 04:26:42;;;;;;;1.77;0.88;;;;;;;-3.11;71.70;100184.91;4997729;28;20104;-70
2023/11/28 04:29:09;;;;;;;1.05;0.60;;;;;;;-3.11;71.43;100174.69;4998324;28;20047;-71
2023/11/28 04:31:36;;;;;;;5.15;1.02;;;;;;;-3.10;71.91;100171.34;4997415;28;20053;-72
2023/11/28 04:34:03;;;;;;;2.15;0.70;;;;;;;-3.09;71.61;100172.19;4997434;28;20058;-72
2023/11/28 04:36:30;;;;;;;1.20;0.70;;;;;;;-3.10;71.84;100157.66;4998180;28;20050;-72
2023/11/28 04:38:59;;;;;;;3.20;0.73;;;;;;;-3.08;71.55;100159.44;4997245;28;20577;-71
2023/11/28 04:41:27;;;;;;;2.40;0.40;;;;;;;-3.07;71.94;100148.41;4997144;28;20050;-71
2023/11/28 04:43:55;;;;;;;4.20;1.30;;;;;;;-3.07;72.05;100139.88;4997065;28;20050;-71
2023/11/28 04:46:22;;;;;;;3.05;0.77;;;;;;;-3.06;71.71;100139.06;4997505;28;20082;-71
2023/11/28 04:48:49;;;;;;;1.85;0.80;;;;;;;-3.05;71.88;100138.22;4997112;28;20084;-71
2023/11/28 04:51:16;;;;;;;1.27;0.60;;;;;;;-3.05;71.51;100131.41;4997036;28;20129;-71
2023/11/28 04:53:43;;;;;;;1.73;0.80;;;;;;;-3.04;71.71;100127.19;4996907;28;20086;-71
2023/11/28 04:56:11;;;;;;;3.75;0.60;;;;;;;-3.05;71.67;100113.53;4996882;28;20129;-71
2023/11/28 04:58:38;;;;;;;0.73;0.40;;;;;;;-3.05;71.76;100108.41;4997065;28;20482;-71
2023/11/28 05:01:06;;;;;;;1.73;0.88;;;;;;;-3.04;71.51;100101.66;4996920;28;20114;-71
2023/11/28 05:03:33;;;;;;;1.65;0.75;;;;;;;-3.03;71.61;100096.56;4996623;28;20101;-72
2023/11/28 05:06:00;;;;;;;1.27;0.60;;;;;;;-3.02;72.10;100088.06;4997869;28;20081;-72
2023/11/28 05:08:27;;;;;;;6.18;0.68;;;;;;;-3.03;71.84;100083.78;4997014;28;20050;-71
2023/11/28 05:10:54;;;;;;;3.10;0.63;;;;;;;-3.00;71.97;100083.84;4996727;28;20540;-71
2023/11/28 05:13:21;;;;;;;4.45;0.60;;;;;;;-3.00;72.06;100078.75;4996623;28;20082;-71
2023/11/28 05:15:48;;;;;;;2.25;1.00;;;;;;;-2.99;72.07;100082.16;4996615;28;20051;-71
2023/11/28 05:18:16;;;;;;;1.63;0.63;;;;;;;-2.97;72.06;100075.41;4997931;28;20481;-70
2023/11/28 05:20:43;;;;;;;7.30;0.60;;;;;;;-2.98;72.13;100064.31;4996443;28;20078;-70
2023/11/28 05:23:10;;;;;;;1.85;0.63;;;;;;;-2.97;72.44;100063.50;4996021;28;20547;-70
2023/11/28 05:25:37;;;;;;;3.78;0.68;;;;;;;-2.95;72.27;100061.84;4996757;28;20125;-70
2023/11/28 05:28:04;;;;;;;3.78;0.80;;;;;;;-2.94;72.35;100053.34;4997169;28;20129;-70
2023/11/28 05:30:31;;;;;;;1.40;0.30;;;;;;;-2.94;72.37;100048.22;4996578;28;20086;-70
2023/11/28 05:32:58;;;;;;;0.90;0.40;;;;;;;-2.92;72.15;100049.97;4996525;28;20081;-70
2023/11/28 05:35:26;;;;;;;1.35;0.40;;;;;;;-2.95;72.38;100040.53;4996946;28;20165;-70
2023/11/28 05:37:53;;;;;;;0.98;0.52;;;;;;;-2.89;72.71;100034.72;4996104;28;20129;-70
2023/11/28 05:40:21;;;;;;;0.88;0.40;;;;;;;-2.88;72.68;100016.84;4996176;28;20092;-70
2023/11/28 05:42:48;;;;;;;0.70;0.30;;;;;;;-2.88;72.34;100018.53;4997068;28;20049;-70
2023/11/28 05:45:15;;;;;;;0.85;0.20;;;;;;;-2.85;72.40;100016.06;4996317;28;20089;-70
2023/11/28 05:47:42;;;;;;;0.40;0.30;;;;;;;-2.83;72.32;100009.28;4996061;28;20082;-70
2023/11/28 05:50:10;;;;;;;2.08;0.40;;;;;;;-2.83;72.39;100010.16;4995944;28;20129;-70
2023/11/28 05:52:38;;;;;;;1.50;0.40;;;;;;;-2.80;72.37;99999.13;4995937;28;20078;-70
2023/11/28 05:55:06;;;;;;;0.50;0.30;;;;;;;-2.79;72.76;100001.75;4996047;28;20065;-70
2023/11/28 05:57:33;;;;;;;4.70;0.35;;;;;;;-2.77;72.76;99994.09;4996736;28;20437;-70
2023/11/28 06:00:00;;;;;;;4.40;0.30;;;;;;;-2.74;72.40;99986.50;4995781;28;20082;-70
2023/11/28 06:02:27;;;;;;;2.75;0.20;;;;;;;-2.73;72.49;99985.69;4996637;28;20046;-70
2023/11/28 06:04:54;;;;;;;1.88;0.30;;;;;;;-2.73;73.08;99980.56;4995867;28;20046;-70
2023/11/28 06:07:21;;;;;;;1.30;0.30;;;;;;;-2.72;72.58;99977.19;4996795;28;20130;-70
2023/11/28 06:09:49;;;;;;;0.88;0.22;;;;;;;-2.70;72.75;99972.97;4995626;28;20088;-70
2023/11/28 06:12:16;;;;;;;1.05;0.30;;;;;;;-2.68;72.97;99966.19;4995843;28;20077;-70
2023/11/28 06:14:43;;;;;;;1.83;0.30;;;;;;;-2.67;73.16;99965.38;4997184;28;20050;-70
2023/11/28 06:17:12;;;;;;;0.80;0.30;;;;;;;-2.66;72.86;99954.28;4996163;28;20046;-70
2023/11/28 06:19:39;;;;;;;0.95;0.30;;;;;;;-2.65;72.47;99948.34;4996379;28;20053;-72
2023/11/28 06:22:05;;;;;;;2.40;0.30;;;;;;;-2.64;72.98;99944.97;4995353;28;20050;-72
2023/11/28 06:24:32;;;;;;;0.40;0.10;;;;;;;-2.63;73.04;99941.56;4995144;28;20062;-72
2023/11/28 06:27:02;;;;;;;3.75;0.40;;;;;;;-2.62;73.06;99938.22;4995788;28;20475;-72
2023/11/28 06:29:29;;;;;;;0.70;0.40;;;;;;;-2.61;72.94;99945.03;4995453;28;20050;-72
2023/11/28 06:31:56;;;;;;;2.00;0.43;;;;;;;-2.60;73.03;99936.53;4995148;28;20085;-72
2023/11/28 06:34:23;;;;;;;4.13;0.20;;;;;;;-2.59;73.23;99920.38;4994920;28;20106;-73
2023/11/28 06:36:50;;;;;;;0.20;0.10;;;;;;;-2.58;73.07;99919.53;4995820;28;20101;-73
2023/11/28 06:39:18;;;;;;;1.13;0.50;;;;;;;-2.56;73.31;99917.00;4995831;28;20464;-72
2023/11/28 06:41:45;;;;;;;1.15;0.20;;;;;;;-2.54;73.12;99931.53;4994882;28;20049;-72
2023/11/28 06:44:14;;;;;;;0.47;0.35;;;;;;;-2.53;73.07;99922.19;4995080;28;20484;-72
2023/11/28 06:46:41;;;;;;;0.60;0.40;;;;;;;-2.54;73.01;99923.88;4995665;28;20046;-72
2023/11/28 06:49:08;;;;;;;1.48;0.30;;;;;;;-2.51;73.18;99923.06;4995090;28;20043;-72
2023/11/28 06:51:35;;;;;;;2.10;0.25;;;;;;;-2.50;73.04;99907.78;4995512;28;20122;-72
2023/11/28 06:54:02;;;;;;;2.47;0.20;;;;;;;-2.48;72.97;99912.91;4994907;28;20129;-72
2023/11/28 06:56:29;;;;;;;0.47;0.20;;;;;;;-2.46;73.05;99910.38;4994591;28;20050;-72
2023/11/28 06:58:56;;;;;;;0.55;0.10;;;;;;;-2.47;73.55;99914.66;4994621;28;20516;-72
2023/11/28 07:01:24;;;;;;;0.73;0.17;;;;;;;-2.45;72.78;99912.97;4994645;28;20051;-72
2023/11/28 07:03:51;;;;;;;0.95;0.20;;;;;;;-2.43;73.10;99910.44;4994457;28;20114;-72
2023/11/28 07:06:18;;;;;;;0.35;0.17;;;;;;;-2.43;72.79;99902.78;4994417;28;20133;-72
2023/11/28 07:08:46;;;;;;;0.17;0.13;;;;;;;-2.40;72.74;99897.72;4994313;28;20046;-73
2023/11/28 07:11:19;;;;;;;5.75;0.38;;;;;;;-2.40;72.91;99903.69;4994321;28;20512;-74
2023/11/28 07:13:47;;;;;;;0.65;0.30;;;;;;;-2.39;72.83;99896.88;4994394;28;20050;-72
2023/11/28 07:16:14;;;;;;;5.30;0.38;;;;;;;-2.36;72.83;99894.38;4994421;28;20046;-72
2023/11/28 07:18:43;;;;;;;1.90;0.30;;;;;;;-2.36;73.32;99894.38;4994294;28;20603;-72
2023/11/28 07:21:10;;;;;;;3.17;0.25;;;;;;;-2.34;72.85;99900.38;4994219;28;20129;-72
2023/11/28 07:23:38;;;;;;;0.60;0.20;;;;;;;-2.33;73.07;99895.31;4994437;28;20051;-73
2023/11/28 07:26:06;;;;;;;1.27;0.20;;;;;;;-2.34;73.73;99888.47;4994054;28;20133;-72
2023/11/28 07:28:34;;;;;;;1.98;0.50;;;;;;;-2.31;73.50;99882.53;4994122;28;20046;-72
2023/11/28 07:31:01;;;;;;;3.60;1.10;;;;;;;-2.30;73.58;99877.47;4993916;28;20456;-72
2023/11/28 07:33:28;;;;;;;0.68;0.30;;;;;;;-2.29;73.17;99881.75;4993173;28;20140;-72
2023/11/28 07:35:56;;;;;;;0.50;0.20;;;;;;;-2.27;72.84;99876.66;4995068;28;20058;-72
2023/11/28 07:38:24;;;;;;;1.58;0.20;;;;;;;-2.26;72.82;99880.94;4994804;28;20460;-73
2023/11/28 07:40:51;;;;;;;2.63;0.52;;;;;;;-2.26;73.22;99871.56;4994025;28;20050;-72
2023/11/28 07:43:18;;;;;;;1.98;0.20;;;;;;;-2.25;72.62;99877.53;4995092;28;20125;-72
2023/11/28 07:45:45;;;;;;;1.15;0.30;;;;;;;-2.25;73.72;99885.22;4994782;28;20488;-72
2023/11/28 07:48:12;;;;;;;1.95;0.20;;;;;;;-2.24;72.69;99884.41;4995052;28;20065;-71
2023/11/28 07:50:39;;;;;;;0.77;0.40;;;;;;;-2.26;72.74;99878.38;4993839;28;20046;-71
2023/11/28 07:53:08;;;;;;;3.40;0.30;;;;;;;-2.28;72.90;99875.81;4994966;28;20453;-71
2023/11/28 07:58:16;;;;;;;0.40;0.20;;;;;;;-2.28;72.36;99880.03;4991576;28;20049;-70
2023/11/28 08:00:43;;;;;;;0.43;0.25;;;;;;;-2.29;72.43;99870.66;4993657;28;20491;-71
2023/11/28 08:03:10;;;;;;;0.68;0.30;;;;;;;-2.31;72.06;99862.06;4994487;28;20078;-71
2023/11/28 08:05:37;;;;;;;3.30;0.20;;;;;;;-2.29;72.21;99866.41;4993678;28;20082;-71
2023/11/28 08:08:05;;;;;;;2.25;0.13;;;;;;;-2.29;72.99;99856.16;4993756;28;20129;-71
2023/11/28 08:10:34;;;;;;;0.30;0.20;;;;;;;-2.29;72.70;99857.88;4994300;28;20516;-72
2023/11/28 08:13:01;;;;;;;0.68;0.20;;;;;;;-2.30;72.75;99854.44;4994610;28;20127;-71
2023/11/28 08:15:28;;;;;;;0.38;0.15;;;;;;;-2.28;72.71;99854.47;4993463;28;20046;-73
2023/11/28 08:17:55;;;;;;;0.32;0.25;;;;;;;-2.28;72.42;99851.91;4993764;28;20137;-72
2023/11/28 08:20:23;;;;;;;2.35;0.30;;;;;;;-2.29;72.18;99855.31;4993603;28;20078;-71
2023/11/28 08:22:50;;;;;;;0.38;0.20;;;;;;;-2.29;71.99;99839.97;4994424;28;20413;-71
2023/11/28 08:25:17;;;;;;;1.15;0.30;;;;;;;-2.30;71.85;99839.09;4993265;28;20125;-74
2023/11/28 08:27:45;;;;;;;4.05;0.25;;;;;;;-2.31;72.17;99828.81;4993461;28;20046;-72
2023/11/28 08:30:13;;;;;;;0.50;0.30;;;;;;;-2.31;72.09;99822.00;4993462;28;20085;-71
2023/11/28 08:32:40;;;;;;;0.52;0.30;;;;;;;-2.30;72.73;99834.00;4994576;28;20473;-71
2023/11/28 08:35:08;;;;;;;0.43;0.22;;;;;;;-2.29;72.42;99829.72;4993594;28;20069;-72
2023/11/28 08:37:35;;;;;;;0.28;0.17;;;;;;;-2.28;71.87;99831.44;4993409;28;20046;-73
2023/11/28 08:40:03;;;;;;;0.82;0.28;;;;;;;-2.30;72.24;99831.44;4994306;28;20540;-73
2023/11/28 08:42:30;;;;;;;0.65;0.28;;;;;;;-2.29;72.29;99832.28;4993223;28;20055;-73
2023/11/28 08:45:00;;;;;;;0.55;0.28;;;;;;;-2.26;72.09;99840.00;4994220;28;20050;-73
2023/11/28 08:47:27;;;;;;;1.55;0.30;;;;;;;-2.25;72.37;99846.84;4993532;28;20145;-76
2023/11/28 08:49:59;;;;;;;0.20;0.20;;;;;;;-2.25;72.66;99836.59;4994815;28;20081;-79
2023/11/28 08:52:27;;;;;;;1.45;0.22;;;;;;;-2.25;72.56;99841.72;4994865;28;20415;-79
2023/11/28 08:54:57;;;;;;;2.13;0.30;;;;;;;-2.25;72.50;99846.84;4995555;28;20051;-82
2023/11/28 08:57:26;;;;;;;1.17;0.20;;;;;;;-2.24;72.18;99853.69;4996922;28;20042;-80
2023/11/28 08:59:53;;;;;;;1.50;0.38;;;;;;;-2.24;72.72;99855.41;4998444;28;20093;-79
2023/11/28 09:02:22;;;;;;;0.65;0.35;;;;;;;-2.25;72.06;99859.63;4998369;28;20050;-77
2023/11/28 09:04:49;;;;;;;1.50;0.30;;;;;;;-2.28;72.05;99862.13;4997242;28;20046;-77
2023/11/28 09:07:16;;;;;;;1.17;0.60;;;;;;;-2.32;72.22;99852.69;4997925;28;20455;-78
2023/11/28 09:09:43;;;;;;;2.45;0.60;;;;;;;-2.34;71.86;99856.91;4997828;28;20046;-77
2023/11/28 09:12:10;;;;;;;2.38;0.35;;;;;;;-2.40;72.13;99841.44;4997487;28;20077;-78
2023/11/28 09:14:37;;;;;;;1.75;0.50;;;;;;;-2.38;71.83;99850.03;4998058;28;20055;-78
2023/11/28 09:17:05;;;;;;;1.10;0.40;;;;;;;-2.42;71.90;99846.56;4998411;28;20046;-78
2023/11/28 09:19:33;;;;;;;0.90;0.40;;;;;;;-2.42;72.60;99849.13;4998293;28;20063;-78
2023/11/28 09:22:02;;;;;;;0.55;0.35;;;;;;;-2.43;72.43;99841.41;4997370;28;20504;-79
2023/11/28 09:24:31;;;;;;;0.95;0.40;;;;;;;-2.47;72.46;99830.25;4997125;28;20050;-77
2023/11/28 09:26:59;;;;;;;1.23;0.50;;;;;;;-2.46;72.21;99829.41;4997090;28;20051;-77
2023/11/28 09:29:26;;;;;;;1.10;0.30;;;;;;;-2.50;72.58;99825.94;4997581;28;20137;-77
2023/11/28 09:31:54;;;;;;;1.20;0.50;;;;;;;-2.51;72.08;99821.66;4998427;28;20515;-78
2023/11/28 09:34:22;;;;;;;1.25;0.60;;;;;;;-2.54;72.16;99821.59;4999042;28;20385;-81
2023/11/28 09:36:50;;;;;;;0.93;0.43;;;;;;;-2.50;72.67;99819.97;4997666;28;20514;-82
2023/11/28 09:39:19;;;;;;;0.88;0.40;;;;;;;-2.51;72.80;99820.78;4997721;28;20501;-80
2023/11/28 09:41:46;;;;;;;2.33;0.60;;;;;;;-2.54;72.14;99808.81;4998110;28;20112;-77
2023/11/28 09:44:15;;;;;;;1.27;0.30;;;;;;;-2.52;71.94;99819.94;4997612;28;20053;-76
2023/11/28 09:46:48;;;;;;;1.75;0.50;;;;;;;-2.50;72.62;99817.41;4996146;28;20161;-76
2023/11/28 09:49:18;;;;;;;1.13;0.40;;;;;;;-2.53;72.24;99818.22;4996182;28;20480;-73
2023/11/28 09:51:46;;;;;;;0.90;0.40;;;;;;;-2.54;72.41;99813.91;4995689;28;20047;-72
2023/11/28 09:54:16;;;;;;;0.47;0.28;;;;;;;-2.56;71.36;99809.59;4995617;28;20516;-76
2023/11/28 09:56:45;;;;;;;0.98;0.40;;;;;;;-2.56;71.89;99823.28;4995571;28;20133;-75
2023/11/28 09:59:13;;;;;;;0.80;0.30;;;;;;;-2.61;72.14;99812.09;4995575;28;20085;-74
2023/11/28 10:01:43;;;;;;;0.68;0.22;;;;;;;-2.61;71.99;99811.25;4996445;28;20057;-75
2023/11/28 10:04:12;;;;;;;0.82;0.43;;;;;;;-2.64;72.01;99806.06;4997562;28;20496;-82
2023/11/28 10:06:43;;;;;;;1.05;0.40;;;;;;;-2.64;71.60;99806.94;4997167;28;20057;-73
2023/11/28 10:09:12;;;;;;;0.50;0.32;;;;;;;-2.68;72.00;99804.28;4994069;28;20053;-74
2023/11/28 10:11:43;;;;;;;2.45;0.38;;;;;;;-2.71;71.91;99810.19;4995349;28;20077;-73
2023/11/28 10:14:10;;;;;;;5.82;0.43;;;;;;;-2.75;71.66;99808.41;4994983;28;20101;-73
2023/11/28 10:16:46;;;;;;;5.05;0.30;;;;;;;-2.78;71.30;99813.47;4995710;28;20078;-73
2023/11/28 10:19:13;;;;;;;1.25;0.40;;;;;;;-2.82;71.37;99802.28;4995078;28;20052;-75
2023/11/28 10:21:40;;;;;;;4.78;0.55;;;;;;;-2.85;71.18;99806.50;4995340;28;20129;-74
2023/11/28 10:24:08;;;;;;;2.17;0.30;;;;;;;-2.88;71.46;99801.31;4994937;28;20046;-74
2023/11/28 10:26:36;;;;;;;1.15;0.40;;;;;;;-2.90;71.40;99813.19;4994971;28;20046;-74
2023/11/28 10:29:06;;;;;;;2.22;0.40;;;;;;;-2.97;71.27;99804.56;4994771;28;20074;-75
2023/11/28 10:31:37;;;;;;;0.80;0.40;;;;;;;-2.96;71.30;99799.50;4994843;28;20050;-74
2023/11/28 10:34:08;;;;;;;2.20;0.40;;;;;;;-2.97;71.41;99813.06;4995610;28;20084;-75
2023/11/28 10:36:40;;;;;;;1.90;0.30;;;;;;;-3.04;70.95;99795.91;4994956;28;20050;-74
2023/11/28 10:39:08;;;;;;;3.17;0.47;;;;;;;-3.03;71.11;99805.28;4994944;28;20054;-74
2023/11/28 10:41:36;;;;;;;1.10;0.30;;;;;;;-3.04;71.05;99802.72;4995724;28;20496;-74
2023/11/28 10:44:05;;;;;;;0.80;0.30;;;;;;;-3.07;71.49;99808.63;4995846;28;20097;-75
2023/11/28 10:46:34;;;;;;;2.53;0.40;;;;;;;-3.10;70.87;99811.13;4995933;28;20134;-74
2023/11/28 10:49:02;;;;;;;1.13;0.40;;;;;;;-3.13;70.81;99810.16;4995859;28;20042;-74
2023/11/28 10:51:30;;;;;;;2.45;0.60;;;;;;;-3.15;71.22;99801.63;4995013;28;20069;-74
2023/11/28 10:54:07;;;;;;;1.25;0.30;;;;;;;-3.17;70.68;99809.25;4994802;28;20105;-74
2023/11/28 10:56:46;;;;;;;1.80;0.40;;;;;;;-3.19;71.25;99800.69;4995815;28;20054;-74
2023/11/28 10:59:26;;;;;;;1.80;0.30;;;;;;;-3.23;70.89;99799.78;4995588;28;20406;-75
2023/11/28 11:01:54;;;;;;;0.55;0.30;;;;;;;-3.26;71.20;99797.16;4995307;28;20050;-76
2023/11/28 11:04:21;;;;;;;0.40;0.30;;;;;;;-3.30;70.98;99797.94;4995528;28;20497;-75
2023/11/28 11:06:48;;;;;;;0.65;0.30;;;;;;;-3.29;70.83;99809.00;4995390;28;20097;-76
2023/11/28 11:09:16;;;;;;;1.75;0.40;;;;;;;-3.31;70.81;99797.88;4996089;28;20113;-88
2023/11/28 11:11:46;;;;;;;1.00;0.30;;;;;;;-3.36;71.24;99804.56;4996746;28;20049;-77
2023/11/28 11:14:25;;;;;;;0.47;0.20;;;;;;;-3.35;70.64;99806.31;4996178;28;20057;-79
2023/11/28 11:16:58;;;;;;;1.25;0.30;;;;;;;-3.41;71.17;99805.34;4996002;28;20137;-79
2023/11/28 11:19:27;;;;;;;0.40;0.20;;;;;;;-3.43;70.55;99807.00;4995859;28;20070;-80
2023/11/28 11:21:59;;;;;;;0.77;0.20;;;;;;;-3.47;70.78;99796.66;4996465;28;20131;-77
2023/11/28 11:24:27;;;;;;;0.32;0.20;;;;;;;-3.48;71.00;99808.56;4996816;28;20061;-78
2023/11/28 11:26:54;;;;;;;4.00;0.32;;;;;;;-3.49;70.78;99804.31;4996199;28;20136;-78
2023/11/28 11:29:40;;;;;;;1.08;0.30;;;;;;;-3.53;70.93;99805.09;4996778;28;20455;-80
2023/11/28 11:32:11;;;;;;;2.42;0.35;;;;;;;-3.58;70.90;99806.66;4995520;28;20105;-78
2023/11/28 11:34:41;;;;;;;0.93;0.30;;;;;;;-3.65;70.91;99809.88;4996705;28;20073;-78